Terminal Aerodrome Forecast
Issued by NWS

Home | Current Version | Previous Version | Text Only | Print | Product List | Glossary On
Versions: 1 2 3 4 5 6 7 8 9 10 11 12 13 14 15
921
FTUS46 KLOX 292343
TAFPMD
TAF
KPMD 292343Z 3000/3024 25018G26KT P6SM SCT050 SCT110
     FM300300 24012KT P6SM SCT110
     FM300800 22008KT P6SM SCT250
     FM302000 24020G28KT P6SM SCT250=

USA.gov is the U.S. government's official web portal to all federal, state and local government web resources and services.